Time;durP1;ratioP1;P1;durP2;ratioP2;P2;SDS_P1;SDS_P2;PMS_P1;PMS_P2;Temp;Humidity;BMP_temperature;BMP_pressure;BME280_temperature;BME280_humidity;BME280_pressure;Samples;Min_cycle;Max_cycle;Signal;HPM_P1;HPM_P2
2023/11/08 00:02:27;;;;;;;4.83;4.33;;;;;;;;;;4956849;28;20727;-83
2023/11/08 00:04:55;;;;;;;6.37;4.37;;;;;;;;;;4970670;28;20214;-83
2023/11/08 00:07:23;;;;;;;5.17;4.67;;;;;;;;;;4923346;28;20227;-85
2023/11/08 00:09:51;;;;;;;4.60;4.17;;;;;;;;;;4969471;28;20233;-84
2023/11/08 00:12:20;;;;;;;5.80;4.20;;;;;;;;;;4941855;28;20230;-82
2023/11/08 00:14:46;;;;;;;5.77;4.50;;;;;;;;;;4948094;28;20379;-84
2023/11/08 00:17:13;;;;;;;5.07;4.37;;;;;;;;;;4941803;28;20283;-85
2023/11/08 00:19:39;;;;;;;6.60;4.60;;;;;;;;;;4973254;28;20241;-87
2023/11/08 00:22:07;;;;;;;6.90;4.23;;;;;;;;;;4956190;28;20227;-87
2023/11/08 00:24:35;;;;;;;6.30;4.17;;;;;;;;;;4955473;28;20231;-88
2023/11/08 00:27:01;;;;;;;5.13;4.50;;;;;;;;;;4924583;28;20288;-85
2023/11/08 00:29:31;;;;;;;5.33;4.80;;;;;;;;;;4963999;28;20237;-84
2023/11/08 00:31:59;;;;;;;6.90;4.93;;;;;;;;;;4951492;28;20233;-86
2023/11/08 00:34:27;;;;;;;6.00;4.53;;;;;;;;;;4960731;28;20211;-85
2023/11/08 00:36:56;;;;;;;5.50;4.23;;;;;;;;;;4959278;28;20293;-87
2023/11/08 00:39:26;;;;;;;5.53;4.53;;;;;;;;;;4946702;28;20229;-87
2023/11/08 00:41:52;;;;;;;6.13;4.50;;;;;;;;;;4954772;28;20219;-83
2023/11/08 00:44:18;;;;;;;6.90;5.00;;;;;;;;;;4962651;28;20224;-85
2023/11/08 00:46:43;;;;;;;4.83;4.33;;;;;;;;;;4959796;28;20233;-87
2023/11/08 00:49:12;;;;;;;5.80;5.20;;;;;;;;;;4959811;28;20226;-83
2023/11/08 00:51:39;;;;;;;8.20;5.17;;;;;;;;;;4962162;28;20292;-85
2023/11/08 00:54:07;;;;;;;6.20;5.00;;;;;;;;;;4959228;28;20232;-86
2023/11/08 00:56:35;;;;;;;7.07;4.70;;;;;;;;;;4948653;28;20277;-87
2023/11/08 00:59:00;;;;;;;5.60;4.27;;;;;;;;;;4952108;28;20223;-86
2023/11/08 01:01:27;;;;;;;5.90;4.47;;;;;;;;;;4940843;28;20222;-84
2023/11/08 01:03:55;;;;;;;8.67;4.80;;;;;;;;;;4932760;29;20695;-83
2023/11/08 01:06:20;;;;;;;5.53;4.53;;;;;;;;;;4938189;28;20231;-86
2023/11/08 01:08:55;;;;;;;8.87;5.10;;;;;;;;;;4948955;28;20219;-88
2023/11/08 01:11:20;;;;;;;6.43;4.93;;;;;;;;;;4952642;28;20229;-84
2023/11/08 01:13:48;;;;;;;6.93;5.00;;;;;;;;;;4946602;28;20229;-89
2023/11/08 01:16:14;;;;;;;5.50;5.00;;;;;;;;;;4946845;28;20218;-81
2023/11/08 01:18:44;;;;;;;5.17;4.67;;;;;;;;;;4944070;28;20609;-84
2023/11/08 01:21:12;;;;;;;6.77;5.40;;;;;;;;;;4941103;28;20945;-81
2023/11/08 01:23:40;;;;;;;6.13;5.00;;;;;;;;;;4958676;28;20226;-86
2023/11/08 01:26:07;;;;;;;7.33;5.37;;;;;;;;;;4943265;28;20225;-83
2023/11/08 01:28:33;;;;;;;5.83;5.30;;;;;;;;;;4940500;29;20266;-85
2023/11/08 01:31:00;;;;;;;5.83;5.23;;;;;;;;;;4948121;28;20660;-86
2023/11/08 01:33:26;;;;;;;6.00;5.50;;;;;;;;;;4940960;28;20214;-85
2023/11/08 01:35:56;;;;;;;6.23;5.47;;;;;;;;;;4959238;28;20217;-86
2023/11/08 01:38:26;;;;;;;7.77;5.67;;;;;;;;;;4958249;28;20218;-84
2023/11/08 01:40:52;;;;;;;10.33;6.40;;;;;;;;;;4960630;28;20653;-85
2023/11/08 01:43:30;;;;;;;7.33;6.63;;;;;;;;;;4955445;28;20214;-85
2023/11/08 01:46:12;;;;;;;9.20;6.27;;;;;;;;;;4951752;28;20226;-87
2023/11/08 01:48:39;;;;;;;6.93;6.33;;;;;;;;;;4952789;28;20241;-87
2023/11/08 01:51:05;;;;;;;8.47;6.70;;;;;;;;;;4924590;28;20281;-86
2023/11/08 01:53:35;;;;;;;8.20;6.47;;;;;;;;;;4950425;28;20231;-80
2023/11/08 01:56:03;;;;;;;8.50;6.77;;;;;;;;;;4919197;29;20231;-81
2023/11/08 01:58:31;;;;;;;8.43;6.40;;;;;;;;;;4916388;29;20597;-83
2023/11/08 02:01:00;;;;;;;8.10;6.43;;;;;;;;;;4940184;29;20230;-83
2023/11/08 02:03:28;;;;;;;6.53;5.90;;;;;;;;;;4938466;29;20659;-84
2023/11/08 02:05:54;;;;;;;6.77;6.17;;;;;;;;;;4939110;29;20222;-82
2023/11/08 02:08:20;;;;;;;8.13;6.30;;;;;;;;;;4921853;28;20219;-83
2023/11/08 02:10:46;;;;;;;9.13;6.63;;;;;;;;;;4937637;29;20230;-83
2023/11/08 02:13:12;;;;;;;7.07;6.23;;;;;;;;;;4923089;28;20234;-86
2023/11/08 02:15:41;;;;;;;7.63;6.20;;;;;;;;;;4924404;28;20717;-82
2023/11/08 02:18:09;;;;;;;6.30;5.70;;;;;;;;;;4936166;28;20226;-83
2023/11/08 02:20:37;;;;;;;7.53;5.90;;;;;;;;;;4940100;29;20233;-83
2023/11/08 02:23:03;;;;;;;6.23;5.67;;;;;;;;;;4932369;28;20223;-85
2023/11/08 02:25:34;;;;;;;8.20;6.23;;;;;;;;;;4939364;29;20230;-83
2023/11/08 02:27:59;;;;;;;8.63;5.50;;;;;;;;;;4922220;29;20272;-84
2023/11/08 02:30:25;;;;;;;6.53;5.93;;;;;;;;;;4959541;28;20222;-84
2023/11/08 02:32:53;;;;;;;9.80;5.53;;;;;;;;;;4934793;28;20301;-83
2023/11/08 02:35:19;;;;;;;9.50;5.57;;;;;;;;;;4953840;28;20222;-83
2023/11/08 02:37:46;;;;;;;6.73;5.50;;;;;;;;;;4953985;28;20218;-84
2023/11/08 02:40:12;;;;;;;7.97;5.20;;;;;;;;;;4956092;28;20230;-80
2023/11/08 02:42:41;;;;;;;6.97;5.30;;;;;;;;;;4934098;28;20295;-83
2023/11/08 02:45:09;;;;;;;8.37;6.00;;;;;;;;;;4935712;28;20229;-82
2023/11/08 02:47:36;;;;;;;5.77;5.13;;;;;;;;;;4945657;28;20223;-84
2023/11/08 02:50:02;;;;;;;5.67;4.80;;;;;;;;;;4917956;29;20223;-84
2023/11/08 02:52:27;;;;;;;5.40;4.80;;;;;;;;;;4905479;29;20215;-85
2023/11/08 02:54:53;;;;;;;5.77;4.60;;;;;;;;;;4907558;29;20233;-85
2023/11/08 02:57:24;;;;;;;7.57;4.90;;;;;;;;;;4937862;28;20234;-84
2023/11/08 02:59:50;;;;;;;5.20;4.60;;;;;;;;;;4937959;29;20242;-84
2023/11/08 03:02:19;;;;;;;5.27;4.60;;;;;;;;;;4939667;28;20238;-84
2023/11/08 03:04:47;;;;;;;5.47;4.07;;;;;;;;;;4950736;28;20241;-84
2023/11/08 03:07:13;;;;;;;8.33;4.47;;;;;;;;;;4937169;28;20285;-84
2023/11/08 03:09:41;;;;;;;5.07;3.90;;;;;;;;;;4945282;28;20242;-86
2023/11/08 03:12:09;;;;;;;6.23;4.13;;;;;;;;;;4954244;28;20361;-84
2023/11/08 03:14:36;;;;;;;7.10;4.00;;;;;;;;;;4939175;28;20766;-83
2023/11/08 03:17:02;;;;;;;5.57;4.37;;;;;;;;;;4937390;28;20214;-84
2023/11/08 03:19:30;;;;;;;5.27;4.17;;;;;;;;;;4948845;28;20597;-84
2023/11/08 03:22:02;;;;;;;5.63;4.30;;;;;;;;;;4956694;28;20305;-82
2023/11/08 03:24:31;;;;;;;5.73;4.40;;;;;;;;;;4984013;28;20338;-83
2023/11/08 03:26:56;;;;;;;7.50;4.83;;;;;;;;;;4943544;28;20680;-85
2023/11/08 03:29:22;;;;;;;6.13;4.50;;;;;;;;;;4954744;28;20243;-83
2023/11/08 03:31:47;;;;;;;5.50;4.27;;;;;;;;;;4937035;28;20229;-85
2023/11/08 03:34:18;;;;;;;5.70;4.87;;;;;;;;;;4941081;28;20225;-85
2023/11/08 03:36:44;;;;;;;6.93;5.00;;;;;;;;;;4936598;28;20219;-84
2023/11/08 03:39:10;;;;;;;5.00;4.60;;;;;;;;;;4941455;28;20284;-85
2023/11/08 03:41:38;;;;;;;6.70;4.87;;;;;;;;;;4941898;28;20278;-83
2023/11/08 03:44:06;;;;;;;5.93;5.30;;;;;;;;;;4950738;28;20223;-83
2023/11/08 03:46:32;;;;;;;5.47;4.80;;;;;;;;;;4939513;29;20222;-84
2023/11/08 03:48:58;;;;;;;4.97;4.57;;;;;;;;;;4940457;29;20222;-83
2023/11/08 03:51:27;;;;;;;5.97;5.37;;;;;;;;;;4945321;28;20226;-80
2023/11/08 03:53:52;;;;;;;6.03;5.43;;;;;;;;;;4923726;29;20243;-86
2023/11/08 03:56:18;;;;;;;6.93;5.70;;;;;;;;;;4923468;28;20279;-84
2023/11/08 03:58:43;;;;;;;6.77;5.57;;;;;;;;;;4922424;29;20220;-82
2023/11/08 04:05:02;;;;;;;6.30;5.70;;;;;;;;;;4957819;28;20278;-86
2023/11/08 04:07:32;;;;;;;6.37;5.23;;;;;;;;;;4925643;29;20228;-83
2023/11/08 04:09:58;;;;;;;6.17;5.57;;;;;;;;;;4924971;29;20322;-84
2023/11/08 04:12:26;;;;;;;7.20;5.67;;;;;;;;;;4934529;28;20223;-86
2023/11/08 04:14:54;;;;;;;6.20;5.60;;;;;;;;;;4953440;28;20219;-86
2023/11/08 04:17:20;;;;;;;7.67;5.63;;;;;;;;;;4920576;28;20746;-84
2023/11/08 04:19:45;;;;;;;7.07;5.73;;;;;;;;;;4959253;28;20263;-85
2023/11/08 04:22:19;;;;;;;6.00;5.50;;;;;;;;;;4951649;28;20233;-85
2023/11/08 04:24:44;;;;;;;6.03;5.43;;;;;;;;;;4924313;29;20247;-83
2023/11/08 04:27:10;;;;;;;8.87;5.80;;;;;;;;;;4949448;28;20218;-84
2023/11/08 04:29:38;;;;;;;6.23;5.63;;;;;;;;;;4938673;29;20226;-83
2023/11/08 04:32:07;;;;;;;7.67;5.70;;;;;;;;;;4939468;28;20218;-83
2023/11/08 04:34:42;;;;;;;5.83;5.30;;;;;;;;;;4923698;29;20228;-86
2023/11/08 04:37:09;;;;;;;8.53;5.97;;;;;;;;;;4932794;28;20314;-85
2023/11/08 04:39:37;;;;;;;8.37;5.83;;;;;;;;;;4929435;28;20228;-85
2023/11/08 04:42:09;;;;;;;6.33;5.63;;;;;;;;;;4953705;28;20294;-88
2023/11/08 04:44:36;;;;;;;6.53;5.93;;;;;;;;;;4957264;28;20237;-80
2023/11/08 04:47:04;;;;;;;6.40;5.80;;;;;;;;;;4963599;28;20242;-78
2023/11/08 04:49:33;;;;;;;8.73;6.10;;;;;;;;;;4965796;28;20234;-78
2023/11/08 04:52:04;;;;;;;6.27;5.40;;;;;;;;;;4955894;28;20227;-80
2023/11/08 04:54:32;;;;;;;6.80;5.50;;;;;;;;;;4939487;28;20228;-79
2023/11/08 04:57:00;;;;;;;7.40;5.47;;;;;;;;;;4970895;28;20226;-78
2023/11/08 04:59:25;;;;;;;6.30;5.70;;;;;;;;;;4984970;28;20725;-77
2023/11/08 05:01:51;;;;;;;5.33;4.83;;;;;;;;;;4941526;28;20257;-79
2023/11/08 05:04:16;;;;;;;5.67;5.13;;;;;;;;;;4971660;28;20237;-78
2023/11/08 05:06:42;;;;;;;6.13;5.63;;;;;;;;;;4965834;28;20228;-79
2023/11/08 05:09:07;;;;;;;5.97;5.37;;;;;;;;;;4946200;28;20235;-78
2023/11/08 05:11:33;;;;;;;5.43;4.93;;;;;;;;;;4970740;28;20230;-78
2023/11/08 05:14:00;;;;;;;7.17;5.27;;;;;;;;;;4966302;28;20230;-77
2023/11/08 05:16:26;;;;;;;7.73;6.03;;;;;;;;;;4973681;28;20231;-78
2023/11/08 05:18:52;;;;;;;8.37;6.37;;;;;;;;;;4962909;28;20759;-78
2023/11/08 05:21:18;;;;;;;6.67;5.97;;;;;;;;;;4961431;28;20250;-78
2023/11/08 05:23:44;;;;;;;6.77;6.07;;;;;;;;;;4961987;28;20258;-78
2023/11/08 05:26:10;;;;;;;8.63;7.03;;;;;;;;;;4962767;28;20238;-77
2023/11/08 05:28:35;;;;;;;8.30;7.13;;;;;;;;;;4950690;28;20230;-78
2023/11/08 05:31:01;;;;;;;8.20;7.50;;;;;;;;;;4950476;28;20223;-77
2023/11/08 05:33:29;;;;;;;9.90;8.17;;;;;;;;;;4969851;28;20218;-78
2023/11/08 05:35:58;;;;;;;9.13;7.10;;;;;;;;;;4962349;28;20249;-79
2023/11/08 05:38:24;;;;;;;7.30;6.60;;;;;;;;;;4962417;28;20333;-79
2023/11/08 05:40:50;;;;;;;8.73;7.73;;;;;;;;;;4954940;28;20218;-78
2023/11/08 05:43:15;;;;;;;9.03;7.93;;;;;;;;;;4967925;28;20226;-78
2023/11/08 05:45:41;;;;;;;10.67;7.87;;;;;;;;;;4971301;28;20579;-77
2023/11/08 05:48:07;;;;;;;8.57;7.83;;;;;;;;;;4970855;28;20228;-78
2023/11/08 05:50:32;;;;;;;8.83;7.93;;;;;;;;;;4954065;28;20230;-77
2023/11/08 05:52:58;;;;;;;8.83;7.93;;;;;;;;;;4971212;28;20236;-78
2023/11/08 05:55:24;;;;;;;8.50;7.70;;;;;;;;;;4962601;28;20235;-77
2023/11/08 05:57:49;;;;;;;9.13;8.37;;;;;;;;;;4965835;28;20233;-76
2023/11/08 06:00:15;;;;;;;8.70;8.00;;;;;;;;;;4973332;28;20596;-76
2023/11/08 06:02:41;;;;;;;9.50;8.50;;;;;;;;;;4947920;28;20218;-77
2023/11/08 06:05:08;;;;;;;9.17;8.30;;;;;;;;;;4961543;28;20227;-77
2023/11/08 06:07:34;;;;;;;11.47;9.80;;;;;;;;;;4979070;28;20249;-76
2023/11/08 06:10:00;;;;;;;9.10;8.20;;;;;;;;;;4980260;28;20327;-76
2023/11/08 06:12:27;;;;;;;9.20;8.40;;;;;;;;;;4961611;28;20230;-77
2023/11/08 06:14:52;;;;;;;9.23;8.10;;;;;;;;;;4988071;28;20226;-79
2023/11/08 06:17:18;;;;;;;10.47;7.83;;;;;;;;;;4945122;28;20231;-77
2023/11/08 06:19:44;;;;;;;11.40;9.13;;;;;;;;;;4963570;28;20223;-79
2023/11/08 06:22:10;;;;;;;9.70;7.93;;;;;;;;;;4952957;28;20276;-77
2023/11/08 06:24:35;;;;;;;9.03;8.23;;;;;;;;;;4945093;28;20277;-78
2023/11/08 06:27:02;;;;;;;10.20;9.20;;;;;;;;;;4949725;28;20238;-77
2023/11/08 06:29:28;;;;;;;13.97;10.17;;;;;;;;;;4937511;28;20229;-78
2023/11/08 06:31:54;;;;;;;14.27;9.93;;;;;;;;;;4953540;28;20297;-79
2023/11/08 06:34:19;;;;;;;9.73;8.70;;;;;;;;;;4963846;28;20958;-79
2023/11/08 06:36:48;;;;;;;9.73;8.80;;;;;;;;;;4954064;28;20679;-78
2023/11/08 06:39:17;;;;;;;15.07;7.90;;;;;;;;;;4952542;28;20594;-78
2023/11/08 06:41:45;;;;;;;9.67;8.50;;;;;;;;;;4938770;28;20214;-77
2023/11/08 06:44:10;;;;;;;9.30;8.40;;;;;;;;;;4947733;28;20227;-77
2023/11/08 06:46:36;;;;;;;8.43;7.63;;;;;;;;;;4953090;28;20260;-78
2023/11/08 06:49:01;;;;;;;9.50;8.53;;;;;;;;;;4953442;28;20720;-78
2023/11/08 06:51:27;;;;;;;9.13;8.23;;;;;;;;;;4953537;28;20238;-78
2023/11/08 06:53:57;;;;;;;10.37;9.37;;;;;;;;;;4950649;28;20283;-77
2023/11/08 06:56:25;;;;;;;13.17;8.10;;;;;;;;;;4963945;28;20233;-79
2023/11/08 06:58:52;;;;;;;10.23;8.50;;;;;;;;;;4950653;28;20217;-78
2023/11/08 07:01:25;;;;;;;8.47;7.60;;;;;;;;;;4964217;28;20277;-78
2023/11/08 07:03:51;;;;;;;8.43;7.57;;;;;;;;;;4947199;28;20261;-78
2023/11/08 07:06:16;;;;;;;8.60;7.70;;;;;;;;;;4961197;28;20231;-79
2023/11/08 07:08:42;;;;;;;9.83;7.83;;;;;;;;;;4927112;28;20226;-77
2023/11/08 07:11:09;;;;;;;8.93;7.97;;;;;;;;;;4952890;28;20238;-77
2023/11/08 07:13:38;;;;;;;8.73;7.93;;;;;;;;;;4952799;28;20663;-80
2023/11/08 07:16:04;;;;;;;8.93;8.00;;;;;;;;;;4939096;28;20735;-80
2023/11/08 07:18:31;;;;;;;9.47;8.40;;;;;;;;;;4950114;28;20238;-78
2023/11/08 07:20:59;;;;;;;8.23;7.53;;;;;;;;;;4982538;28;20241;-78
2023/11/08 07:23:25;;;;;;;8.77;7.87;;;;;;;;;;4979089;28;20226;-78
2023/11/08 07:25:50;;;;;;;8.30;7.50;;;;;;;;;;4964094;28;20233;-79
2023/11/08 07:28:16;;;;;;;8.10;7.27;;;;;;;;;;4955598;28;20333;-77
2023/11/08 07:30:41;;;;;;;8.13;7.47;;;;;;;;;;4950234;28;20240;-78
2023/11/08 07:33:07;;;;;;;7.47;6.77;;;;;;;;;;4979313;28;20224;-77
2023/11/08 07:35:33;;;;;;;7.13;6.53;;;;;;;;;;4946964;28;20233;-77
2023/11/08 07:38:03;;;;;;;8.33;7.43;;;;;;;;;;4950258;28;20222;-77
2023/11/08 07:40:29;;;;;;;9.70;7.13;;;;;;;;;;4937049;28;20226;-77
2023/11/08 07:42:57;;;;;;;7.50;6.70;;;;;;;;;;4954157;28;20408;-79
2023/11/08 07:45:28;;;;;;;7.57;6.57;;;;;;;;;;4952685;28;20312;-78
2023/11/08 07:47:54;;;;;;;7.97;6.47;;;;;;;;;;4949839;28;20281;-78
2023/11/08 07:50:22;;;;;;;7.30;6.60;;;;;;;;;;4968461;28;20246;-78
2023/11/08 07:52:51;;;;;;;6.90;6.20;;;;;;;;;;4953128;28;20273;-77
2023/11/08 07:55:17;;;;;;;8.77;6.50;;;;;;;;;;4949576;28;20269;-78
2023/11/08 07:57:42;;;;;;;8.13;6.37;;;;;;;;;;4964843;28;20719;-77
2023/11/08 08:00:08;;;;;;;6.97;6.27;;;;;;;;;;4946181;28;20280;-78
2023/11/08 08:02:40;;;;;;;11.87;6.50;;;;;;;;;;4960565;28;20215;-77
2023/11/08 08:05:12;;;;;;;7.83;5.97;;;;;;;;;;4975421;28;20227;-78
2023/11/08 08:07:38;;;;;;;6.40;5.90;;;;;;;;;;4938568;28;20222;-77
2023/11/08 08:10:06;;;;;;;7.23;6.00;;;;;;;;;;4967285;28;20233;-78
2023/11/08 08:12:34;;;;;;;6.47;5.77;;;;;;;;;;4962470;28;20214;-78
2023/11/08 08:15:05;;;;;;;6.70;5.97;;;;;;;;;;4964813;28;20590;-77
2023/11/08 08:17:32;;;;;;;5.70;5.17;;;;;;;;;;4978741;28;20221;-79
2023/11/08 08:19:58;;;;;;;6.63;5.50;;;;;;;;;;4950582;28;20653;-78
2023/11/08 08:22:26;;;;;;;6.03;5.50;;;;;;;;;;4951808;28;20241;-78
2023/11/08 08:24:52;;;;;;;6.83;5.60;;;;;;;;;;4946096;28;20356;-79
2023/11/08 08:27:24;;;;;;;6.47;5.33;;;;;;;;;;4950930;28;20215;-77
2023/11/08 08:29:52;;;;;;;6.13;5.53;;;;;;;;;;4947843;28;20218;-77
2023/11/08 08:32:20;;;;;;;7.97;5.80;;;;;;;;;;4938938;28;20322;-78
2023/11/08 08:34:45;;;;;;;6.13;5.53;;;;;;;;;;4975868;28;20741;-78
2023/11/08 08:37:16;;;;;;;5.87;5.37;;;;;;;;;;4954280;28;20227;-78
2023/11/08 08:39:41;;;;;;;6.13;5.47;;;;;;;;;;4956161;28;20698;-77
2023/11/08 08:42:14;;;;;;;8.37;5.43;;;;;;;;;;4954800;28;20218;-79
2023/11/08 08:44:40;;;;;;;6.73;6.00;;;;;;;;;;4965004;28;20679;-78
2023/11/08 08:47:05;;;;;;;7.17;5.80;;;;;;;;;;4976696;28;20229;-77
2023/11/08 08:49:33;;;;;;;7.20;5.93;;;;;;;;;;4933997;28;20238;-77
2023/11/08 08:51:59;;;;;;;6.33;5.73;;;;;;;;;;4938584;28;20227;-80
2023/11/08 08:54:25;;;;;;;7.33;5.50;;;;;;;;;;4968708;28;20636;-78
2023/11/08 08:56:53;;;;;;;6.43;5.83;;;;;;;;;;4964013;28;20319;-79
2023/11/08 08:59:18;;;;;;;10.13;5.63;;;;;;;;;;4970039;28;20281;-78
2023/11/08 09:01:46;;;;;;;6.27;5.60;;;;;;;;;;4940117;28;20225;-78
2023/11/08 09:04:14;;;;;;;7.97;5.97;;;;;;;;;;4978949;28;20231;-80
2023/11/08 09:06:46;;;;;;;6.27;5.67;;;;;;;;;;4954299;28;20673;-79
2023/11/08 09:09:13;;;;;;;7.50;5.80;;;;;;;;;;4944573;28;20254;-79
2023/11/08 09:11:40;;;;;;;6.50;5.83;;;;;;;;;;4949009;28;20337;-78
2023/11/08 09:14:08;;;;;;;6.93;6.23;;;;;;;;;;4968068;28;20450;-81
2023/11/08 09:16:38;;;;;;;7.00;6.30;;;;;;;;;;4966443;28;20824;-79
2023/11/08 09:19:09;;;;;;;6.80;5.87;;;;;;;;;;4980506;28;20226;-80
2023/11/08 09:21:38;;;;;;;6.57;5.97;;;;;;;;;;4941011;28;20230;-79
2023/11/08 09:24:06;;;;;;;6.47;5.83;;;;;;;;;;4948692;28;20278;-78
2023/11/08 09:26:35;;;;;;;8.10;6.20;;;;;;;;;;4948631;28;20310;-79
2023/11/08 09:29:01;;;;;;;7.43;6.60;;;;;;;;;;4929209;28;20710;-79
2023/11/08 09:31:26;;;;;;;6.20;5.60;;;;;;;;;;4950640;28;20238;-78
2023/11/08 09:34:00;;;;;;;9.00;6.07;;;;;;;;;;4946812;28;20214;-77
2023/11/08 09:36:28;;;;;;;6.67;6.10;;;;;;;;;;4949479;28;20242;-79
2023/11/08 09:38:54;;;;;;;9.30;5.80;;;;;;;;;;4961836;28;20226;-79
2023/11/08 09:41:20;;;;;;;8.27;6.10;;;;;;;;;;4937432;28;20273;-79
2023/11/08 09:43:49;;;;;;;6.13;5.53;;;;;;;;;;4936731;28;20713;-80
2023/11/08 09:46:17;;;;;;;5.97;5.37;;;;;;;;;;4952834;28;20623;-79
2023/11/08 09:48:47;;;;;;;6.30;5.47;;;;;;;;;;4953104;28;20319;-78
2023/11/08 09:51:13;;;;;;;6.40;5.70;;;;;;;;;;4980287;28;20321;-78
2023/11/08 09:53:39;;;;;;;7.07;5.43;;;;;;;;;;4962234;28;20237;-78
2023/11/08 09:56:07;;;;;;;9.17;6.03;;;;;;;;;;4969471;28;20283;-79
2023/11/08 09:58:35;;;;;;;8.93;5.60;;;;;;;;;;4947195;28;20643;-79
2023/11/08 10:01:00;;;;;;;6.93;5.37;;;;;;;;;;4980235;28;20237;-78
2023/11/08 10:03:26;;;;;;;6.83;5.30;;;;;;;;;;4934814;28;20222;-79
2023/11/08 10:05:52;;;;;;;6.20;5.00;;;;;;;;;;4964345;28;20682;-80
2023/11/08 10:08:19;;;;;;;5.90;5.00;;;;;;;;;;4951817;28;20615;-78
2023/11/08 10:10:48;;;;;;;21.23;17.03;;;;;;;;;;4943271;28;20234;-80
2023/11/08 10:13:14;;;;;;;20.37;18.03;;;;;;;;;;4945616;28;20241;-79
2023/11/08 10:15:41;;;;;;;6.57;4.57;;;;;;;;;;4953730;28;20233;-81
2023/11/08 10:18:08;;;;;;;5.37;4.87;;;;;;;;;;4943457;28;20215;-81
2023/11/08 10:20:37;;;;;;;6.40;4.50;;;;;;;;;;4964085;28;20630;-81
2023/11/08 10:23:06;;;;;;;6.00;4.83;;;;;;;;;;4960119;28;20296;-80
2023/11/08 10:25:32;;;;;;;6.13;4.70;;;;;;;;;;4967712;28;20697;-79
2023/11/08 10:28:04;;;;;;;5.97;4.40;;;;;;;;;;4936733;28;20229;-80
2023/11/08 10:30:36;;;;;;;5.63;4.43;;;;;;;;;;4930881;28;20245;-80
2023/11/08 10:33:12;;;;;;;5.77;4.33;;;;;;;;;;4940944;28;20222;-80
2023/11/08 10:35:42;;;;;;;5.17;3.97;;;;;;;;;;4957220;28;20312;-80
2023/11/08 10:38:11;;;;;;;6.83;4.50;;;;;;;;;;4961933;28;20226;-80
2023/11/08 10:40:37;;;;;;;4.70;3.80;;;;;;;;;;4950573;28;20876;-80
2023/11/08 10:43:04;;;;;;;6.10;3.83;;;;;;;;;;4961162;28;20230;-80
2023/11/08 10:45:35;;;;;;;7.60;4.00;;;;;;;;;;4964251;28;20230;-80
2023/11/08 10:48:01;;;;;;;5.13;3.50;;;;;;;;;;4946128;28;20241;-79
2023/11/08 10:50:27;;;;;;;7.03;3.50;;;;;;;;;;4949621;28;20238;-79
2023/11/08 10:52:53;;;;;;;4.07;3.17;;;;;;;;;;4949474;28;20641;-78
2023/11/08 10:55:23;;;;;;;4.07;3.23;;;;;;;;;;4947150;28;20288;-79
2023/11/08 10:57:52;;;;;;;4.43;3.00;;;;;;;;;;4961828;28;20329;-80
2023/11/08 11:00:20;;;;;;;4.87;3.30;;;;;;;;;;4958452;28;20244;-79
2023/11/08 11:03:00;;;;;;;7.50;3.37;;;;;;;;;;4972191;28;20222;-80
2023/11/08 11:05:30;;;;;;;5.63;3.27;;;;;;;;;;4945805;28;20245;-79
2023/11/08 11:07:57;;;;;;;3.20;2.90;;;;;;;;;;4978492;28;20976;-79
2023/11/08 11:10:23;;;;;;;5.33;3.03;;;;;;;;;;4955094;28;20268;-79
2023/11/08 11:12:57;;;;;;;5.00;2.80;;;;;;;;;;4962902;28;20234;-78
2023/11/08 11:15:52;;;;;;;7.53;2.63;;;;;;;;;;4964799;28;20233;-79
2023/11/08 11:18:24;;;;;;;5.77;2.77;;;;;;;;;;4961030;28;20222;-79
2023/11/08 11:21:01;;;;;;;6.07;2.63;;;;;;;;;;4945515;28;20261;-80
2023/11/08 11:23:41;;;;;;;4.47;2.83;;;;;;;;;;4943553;28;20721;-79
2023/11/08 11:26:10;;;;;;;3.93;2.27;;;;;;;;;;4949013;28;20699;-79
2023/11/08 11:28:55;;;;;;;3.13;2.50;;;;;;;;;;4966272;28;20222;-79
2023/11/08 11:31:43;;;;;;;3.97;2.27;;;;;;;;;;4957354;28;20262;-80
2023/11/08 11:34:20;;;;;;;4.67;2.37;;;;;;;;;;4968388;28;20230;-80
2023/11/08 11:39:29;;;;;;;4.07;2.17;;;;;;;;;;4968277;28;20952;-79
2023/11/08 11:42:25;;;;;;;3.70;2.30;;;;;;;;;;4963439;28;20401;-79
2023/11/08 11:45:00;;;;;;;5.07;2.17;;;;;;;;;;4924085;29;20319;-79
2023/11/08 11:47:29;;;;;;;3.93;2.50;;;;;;;;;;4941137;28;20227;-78
2023/11/08 11:50:05;;;;;;;3.40;2.17;;;;;;;;;;4943589;28;20230;-78
2023/11/08 11:52:32;;;;;;;4.47;2.50;;;;;;;;;;4944933;28;20223;-78
2023/11/08 11:55:00;;;;;;;2.17;1.60;;;;;;;;;;4920923;29;20223;-79
2023/11/08 11:57:27;;;;;;;3.47;1.97;;;;;;;;;;4931977;28;20602;-79
2023/11/08 11:59:54;;;;;;;6.10;2.20;;;;;;;;;;4942246;28;20708;-80
2023/11/08 12:02:20;;;;;;;3.53;1.83;;;;;;;;;;4933874;28;20222;-79
2023/11/08 12:04:47;;;;;;;2.60;1.90;;;;;;;;;;4942340;28;20223;-78
2023/11/08 12:07:17;;;;;;;7.47;1.90;;;;;;;;;;4916366;28;20577;-79
2023/11/08 12:09:47;;;;;;;4.07;1.90;;;;;;;;;;4956671;28;20777;-79
2023/11/08 12:12:29;;;;;;;4.60;1.93;;;;;;;;;;4934359;28;20222;-78
2023/11/08 12:14:55;;;;;;;9.77;4.30;;;;;;;;;;4919915;28;20315;-79
2023/11/08 12:17:21;;;;;;;5.47;3.63;;;;;;;;;;4933789;28;20681;-80
2023/11/08 12:19:52;;;;;;;5.50;2.13;;;;;;;;;;4929077;29;20290;-80
2023/11/08 12:22:20;;;;;;;3.30;2.23;;;;;;;;;;4935938;28;20275;-80
2023/11/08 12:24:48;;;;;;;3.93;2.20;;;;;;;;;;4933239;28;20309;-80
2023/11/08 12:27:14;;;;;;;3.03;2.03;;;;;;;;;;4918814;28;20220;-79
2023/11/08 12:29:42;;;;;;;4.10;1.83;;;;;;;;;;4932778;29;20218;-80
2023/11/08 12:32:08;;;;;;;4.77;2.30;;;;;;;;;;4949864;28;20318;-77
2023/11/08 12:34:36;;;;;;;3.57;2.50;;;;;;;;;;4934066;28;20259;-80
2023/11/08 12:37:02;;;;;;;3.80;2.80;;;;;;;;;;4920342;29;20238;-77
2023/11/08 12:39:27;;;;;;;3.47;2.80;;;;;;;;;;4948222;28;20265;-77
2023/11/08 12:41:55;;;;;;;3.17;2.23;;;;;;;;;;4943448;29;20230;-77
2023/11/08 12:44:27;;;;;;;7.80;2.60;;;;;;;;;;4938338;28;20211;-78
2023/11/08 12:46:53;;;;;;;3.40;2.77;;;;;;;;;;4926232;29;20235;-77
2023/11/08 12:49:39;;;;;;;5.37;1.90;;;;;;;;;;4953681;28;20338;-78
2023/11/08 12:52:07;;;;;;;4.47;2.10;;;;;;;;;;4954136;28;20815;-78
2023/11/08 12:54:33;;;;;;;3.77;2.30;;;;;;;;;;4950465;28;20246;-78
2023/11/08 12:56:58;;;;;;;2.83;2.27;;;;;;;;;;4948931;28;20227;-79
2023/11/08 12:59:24;;;;;;;3.93;2.47;;;;;;;;;;4956974;28;20242;-79
2023/11/08 13:02:01;;;;;;;5.17;2.70;;;;;;;;;;4919913;29;20558;-77
2023/11/08 13:04:27;;;;;;;3.33;2.60;;;;;;;;;;4943537;28;20230;-78
2023/11/08 13:06:53;;;;;;;5.20;2.43;;;;;;;;;;4930473;28;20661;-78
2023/11/08 13:09:19;;;;;;;4.83;2.57;;;;;;;;;;4932972;28;20227;-79
2023/11/08 13:11:46;;;;;;;4.33;2.50;;;;;;;;;;4930116;29;20241;-78
2023/11/08 13:14:16;;;;;;;6.90;2.30;;;;;;;;;;4949690;28;20242;-77
2023/11/08 13:16:44;;;;;;;2.83;2.50;;;;;;;;;;4942825;28;20219;-78
2023/11/08 13:19:10;;;;;;;3.47;2.70;;;;;;;;;;4943442;28;21214;-78
2023/11/08 13:21:38;;;;;;;3.93;2.53;;;;;;;;;;4944622;28;20218;-79
2023/11/08 13:24:09;;;;;;;6.73;2.50;;;;;;;;;;4959054;28;20289;-78
2023/11/08 13:26:35;;;;;;;4.47;2.70;;;;;;;;;;4959683;28;20310;-78
2023/11/08 13:29:01;;;;;;;6.87;5.53;;;;;;;;;;4945152;28;20241;-77
2023/11/08 13:31:28;;;;;;;26.23;16.30;;;;;;;;;;4953302;28;20662;-78
2023/11/08 13:33:56;;;;;;;12.83;8.20;;;;;;;;;;4953331;28;20229;-78
2023/11/08 13:36:27;;;;;;;3.67;2.57;;;;;;;;;;4963814;28;20597;-77
2023/11/08 13:38:53;;;;;;;3.80;2.10;;;;;;;;;;4962169;28;20230;-78
2023/11/08 13:41:19;;;;;;;2.30;2.03;;;;;;;;;;4962382;28;20223;-77
2023/11/08 13:43:45;;;;;;;3.53;2.30;;;;;;;;;;4946036;28;20221;-78
2023/11/08 13:46:15;;;;;;;2.77;2.07;;;;;;;;;;4944667;28;20231;-78
2023/11/08 13:48:43;;;;;;;2.20;2.00;;;;;;;;;;4961474;28;20231;-79
2023/11/08 13:51:10;;;;;;;2.77;1.77;;;;;;;;;;4936419;28;20226;-78
2023/11/08 13:53:39;;;;;;;4.23;2.20;;;;;;;;;;4958668;28;20234;-78
2023/11/08 13:56:05;;;;;;;3.60;1.90;;;;;;;;;;4947708;28;20708;-79
2023/11/08 13:58:31;;;;;;;3.73;2.13;;;;;;;;;;4964357;28;20317;-78
2023/11/08 14:01:05;;;;;;;2.57;1.97;;;;;;;;;;4959266;28;20349;-78
2023/11/08 14:03:31;;;;;;;3.57;2.50;;;;;;;;;;4936686;28;20276;-78
2023/11/08 14:05:59;;;;;;;2.70;1.90;;;;;;;;;;4963445;28;20313;-78
2023/11/08 14:08:25;;;;;;;3.87;2.10;;;;;;;;;;4962335;28;20624;-78
2023/11/08 14:10:53;;;;;;;1.67;1.47;;;;;;;;;;4968430;28;20226;-78
2023/11/08 14:13:21;;;;;;;2.47;1.50;;;;;;;;;;4950955;28;20241;-78
2023/11/08 14:15:47;;;;;;;2.83;1.60;;;;;;;;;;4974825;28;20227;-79
2023/11/08 14:18:15;;;;;;;2.87;1.50;;;;;;;;;;4977064;28;20229;-78
2023/11/08 14:20:43;;;;;;;3.17;2.27;;;;;;;;;;4951772;28;20202;-79
2023/11/08 14:23:10;;;;;;;3.07;1.97;;;;;;;;;;4968403;28;20226;-78
2023/11/08 14:25:38;;;;;;;3.03;1.70;;;;;;;;;;4977531;28;20229;-77
2023/11/08 14:28:06;;;;;;;3.53;1.90;;;;;;;;;;4959034;28;20222;-79
2023/11/08 14:30:31;;;;;;;3.60;2.00;;;;;;;;;;4950026;28;20229;-78
2023/11/08 14:32:57;;;;;;;2.43;1.80;;;;;;;;;;4948375;28;20727;-79
2023/11/08 14:35:22;;;;;;;3.93;1.80;;;;;;;;;;4949928;28;20293;-78
2023/11/08 14:37:48;;;;;;;3.27;1.50;;;;;;;;;;4966529;28;20229;-77
2023/11/08 14:40:13;;;;;;;3.00;1.23;;;;;;;;;;4952058;28;20282;-77
2023/11/08 14:42:39;;;;;;;2.50;1.50;;;;;;;;;;4934255;28;20253;-79
2023/11/08 14:45:10;;;;;;;4.87;1.70;;;;;;;;;;4969976;28;20654;-78
2023/11/08 14:47:36;;;;;;;4.07;3.53;;;;;;;;;;4933815;28;20215;-78
2023/11/08 14:50:03;;;;;;;4.30;3.17;;;;;;;;;;4966737;28;20230;-77
2023/11/08 14:52:29;;;;;;;5.43;2.30;;;;;;;;;;4960539;28;20227;-77
2023/11/08 14:54:56;;;;;;;5.37;3.37;;;;;;;;;;4940340;28;20273;-77